createdAt,value
2023-03-26T00:02:34.806Z,77.85
2023-03-26T00:05:01.662Z,78.66
2023-03-26T00:07:28.759Z,78.35
2023-03-26T00:09:55.947Z,78.60
2023-03-26T00:12:22.604Z,78.67
2023-03-26T00:14:49.499Z,78.47
2023-03-26T00:17:16.137Z,78.54
2023-03-26T00:19:43.219Z,79.00
2023-03-26T00:22:13.536Z,79.08
2023-03-26T00:24:40.524Z,78.88
2023-03-26T00:27:08.883Z,77.75
2023-03-26T00:29:35.843Z,78.10
2023-03-26T00:32:03.491Z,78.91
2023-03-26T00:34:31.046Z,78.22
2023-03-26T00:37:03.648Z,78.80
2023-03-26T00:39:34.503Z,78.79
2023-03-26T00:42:07.029Z,78.60
2023-03-26T00:44:34.804Z,78.47
2023-03-26T00:47:23.847Z,77.84
2023-03-26T00:49:53.357Z,78.17
2023-03-26T00:52:24.687Z,78.04
2023-03-26T00:54:57.930Z,77.85
2023-03-26T00:57:36.160Z,78.48
2023-03-26T01:00:13.892Z,77.97
2023-03-26T01:02:41.775Z,78.06
2023-03-26T01:05:32.602Z,77.98
2023-03-26T01:08:08.839Z,77.64
2023-03-26T01:10:50.566Z,78.22
2023-03-26T01:13:28.241Z,77.72
2023-03-26T01:16:02.271Z,77.85
2023-03-26T01:18:59.037Z,76.98
2023-03-26T01:21:28.798Z,77.18
2023-03-26T01:24:05.869Z,77.19
2023-03-26T01:26:52.936Z,77.66
2023-03-26T01:29:22.635Z,76.97
2023-03-26T01:31:49.214Z,76.92
2023-03-26T01:34:38.761Z,76.78
2023-03-26T01:37:13.358Z,76.14
2023-03-26T01:39:57.273Z,76.73
2023-03-26T01:42:44.156Z,76.34
2023-03-26T01:45:16.720Z,76.00
2023-03-26T01:47:44.191Z,75.83
2023-03-26T01:50:11.148Z,76.24
2023-03-26T01:52:38.300Z,75.94
2023-03-26T01:55:06.890Z,76.27
2023-03-26T01:58:03.120Z,76.30
2023-03-26T02:00:32.344Z,76.86
2023-03-26T02:03:00.246Z,76.23
2023-03-26T02:05:33.530Z,76.69
2023-03-26T02:08:06.440Z,76.74
2023-03-26T02:10:35.838Z,77.39
2023-03-26T02:13:06.001Z,76.62
2023-03-26T02:15:33.014Z,76.49
2023-03-26T02:18:04.220Z,75.90
2023-03-26T02:20:31.594Z,76.57
2023-03-26T02:22:58.205Z,76.64
2023-03-26T02:25:25.538Z,76.38
2023-03-26T02:27:52.670Z,76.60
2023-03-26T02:30:25.706Z,75.81
2023-03-26T02:32:59.444Z,76.50
2023-03-26T02:35:34.390Z,75.59
2023-03-26T02:38:03.108Z,75.70
2023-03-26T02:40:29.760Z,76.03
2023-03-26T02:42:58.819Z,75.58
2023-03-26T02:45:27.410Z,74.60
2023-03-26T02:48:12.982Z,74.79
2023-03-26T02:51:03.144Z,74.95
2023-03-26T02:53:41.890Z,74.10
2023-03-26T02:56:23.730Z,73.31
2023-03-26T02:59:10.892Z,73.73
2023-03-26T03:01:43.063Z,74.00
2023-03-26T03:04:12.130Z,73.96
2023-03-26T03:06:40.541Z,73.55
2023-03-26T03:09:10.750Z,73.78
2023-03-26T03:11:40.967Z,73.44
2023-03-26T03:14:08.237Z,73.90
2023-03-26T03:16:35.479Z,73.77
2023-03-26T03:19:06.369Z,73.81
2023-03-26T03:21:40.752Z,74.56
2023-03-26T03:24:08.729Z,74.36
2023-03-26T03:26:41.349Z,75.00
2023-03-26T03:29:30.874Z,75.43
2023-03-26T03:32:04.588Z,76.06
2023-03-26T03:34:43.516Z,75.65
2023-03-26T03:37:10.328Z,74.88
2023-03-26T03:39:49.415Z,75.43
2023-03-26T03:42:22.249Z,75.67
2023-03-26T03:44:52.083Z,75.74
2023-03-26T03:47:37.427Z,75.41
2023-03-26T03:50:05.002Z,75.81
2023-03-26T03:52:35.014Z,75.95
2023-03-26T03:55:01.773Z,75.63
2023-03-26T03:57:45.910Z,75.01
2023-03-26T04:00:20.430Z,75.32
2023-03-26T04:02:58.954Z,75.01
2023-03-26T04:05:28.176Z,75.08
2023-03-26T04:07:54.965Z,74.62
2023-03-26T04:10:21.717Z,75.20
2023-03-26T04:13:07.109Z,75.05
2023-03-26T04:15:49.602Z,74.59
2023-03-26T04:18:16.281Z,74.39
2023-03-26T04:20:51.098Z,74.49
2023-03-26T04:23:24.655Z,75.19
2023-03-26T04:25:58.336Z,74.81
2023-03-26T04:28:46.347Z,74.92
2023-03-26T04:31:24.244Z,74.47
2023-03-26T04:33:55.364Z,74.38
2023-03-26T04:36:32.244Z,73.37
2023-03-26T04:39:05.330Z,73.96
2023-03-26T04:41:55.506Z,73.75
2023-03-26T04:44:30.372Z,73.80
2023-03-26T04:47:04.923Z,74.11
2023-03-26T04:49:38.173Z,74.29
2023-03-26T04:52:05.099Z,74.28
2023-03-26T04:55:06.997Z,74.60
2023-03-26T04:57:53.918Z,74.44
2023-03-26T05:00:43.668Z,74.29
2023-03-26T05:03:11.741Z,73.68
2023-03-26T05:05:39.373Z,73.15
2023-03-26T05:08:07.501Z,74.30
2023-03-26T05:10:34.443Z,74.09
2023-03-26T05:13:09.615Z,73.19
2023-03-26T05:15:40.882Z,72.47
2023-03-26T05:18:32.404Z,72.14
2023-03-26T05:21:01.038Z,72.68
2023-03-26T05:23:28.753Z,71.54
2023-03-26T05:26:11.156Z,71.26
2023-03-26T05:28:37.836Z,71.37
2023-03-26T05:31:12.522Z,70.92
2023-03-26T05:33:43.922Z,70.82
2023-03-26T05:36:15.597Z,70.55
2023-03-26T05:39:05.570Z,70.25
2023-03-26T05:41:59.055Z,70.24
2023-03-26T05:44:37.932Z,69.84
2023-03-26T05:47:14.315Z,69.69
2023-03-26T05:49:41.343Z,69.47
2023-03-26T05:52:07.999Z,69.37
2023-03-26T05:54:54.635Z,69.24
2023-03-26T05:57:40.284Z,69.09
2023-03-26T06:00:25.549Z,68.99
2023-03-26T06:02:56.376Z,69.93
2023-03-26T06:05:46.612Z,69.68
2023-03-26T06:08:19.719Z,69.79
2023-03-26T06:10:51.828Z,69.69
2023-03-26T06:13:19.266Z,69.34
2023-03-26T06:15:48.309Z,68.45
2023-03-26T06:18:33.044Z,67.72
2023-03-26T06:21:19.779Z,67.61
2023-03-26T06:23:53.460Z,67.29
2023-03-26T06:26:35.819Z,66.71
2023-03-26T06:29:22.797Z,66.21
2023-03-26T06:32:19.015Z,65.58
2023-03-26T06:35:07.052Z,66.13
2023-03-26T06:37:33.939Z,65.71
2023-03-26T06:40:05.102Z,66.95
2023-03-26T06:43:07.500Z,65.71
2023-03-26T06:46:00.514Z,64.94
2023-03-26T06:48:39.791Z,65.11
2023-03-26T06:51:25.139Z,64.27
2023-03-26T06:54:24.723Z,64.72
2023-03-26T06:56:53.987Z,64.87
2023-03-26T06:59:39.113Z,63.97
2023-03-26T07:02:24.214Z,65.29
2023-03-26T07:05:10.043Z,64.40
2023-03-26T07:08:08.734Z,63.80
2023-03-26T07:10:53.977Z,63.37
2023-03-26T07:13:40.152Z,63.34
2023-03-26T07:16:50.863Z,62.77
2023-03-26T07:19:46.738Z,62.46
2023-03-26T07:22:20.131Z,63.35
2023-03-26T07:25:06.092Z,63.02
2023-03-26T07:27:58.734Z,63.38
2023-03-26T07:31:18.958Z,64.02
2023-03-26T07:34:13.606Z,63.76
2023-03-26T07:37:04.629Z,64.03
2023-03-26T07:39:50.852Z,63.54
2023-03-26T07:42:55.582Z,63.70
2023-03-26T07:45:48.891Z,64.04
2023-03-26T07:48:29.721Z,63.84
2023-03-26T07:51:18.765Z,63.23
2023-03-26T07:54:10.719Z,62.99
2023-03-26T07:56:46.788Z,63.04
2023-03-26T07:59:36.482Z,62.27
2023-03-26T08:02:44.307Z,60.24
2023-03-26T08:08:37.463Z,61.34
2023-03-26T08:11:24.524Z,59.98
2023-03-26T08:14:11.866Z,59.49
2023-03-26T08:16:44.770Z,59.87
2023-03-26T08:19:24.492Z,58.74
2023-03-26T08:21:54.210Z,59.84
2023-03-26T08:24:31.611Z,59.38
2023-03-26T08:27:01.770Z,58.83
2023-03-26T08:29:28.548Z,56.55
2023-03-26T08:31:57.615Z,57.51
2023-03-26T08:34:24.316Z,57.49
2023-03-26T08:36:51.135Z,54.53
2023-03-26T08:39:19.908Z,53.85
2023-03-26T08:42:03.952Z,54.68
2023-03-26T08:44:52.682Z,52.34
2023-03-26T08:47:22.368Z,54.39
2023-03-26T08:50:04.592Z,55.31
2023-03-26T08:52:52.988Z,54.73
2023-03-26T08:55:19.635Z,53.89
2023-03-26T08:58:15.935Z,54.78
2023-03-26T09:00:49.832Z,54.71
2023-03-26T09:03:16.451Z,56.82
2023-03-26T09:06:07.210Z,56.90
2023-03-26T09:08:53.867Z,56.58
2023-03-26T09:11:34.182Z,55.85
2023-03-26T09:14:07.179Z,54.58
2023-03-26T09:16:36.980Z,56.83
2023-03-26T09:19:23.797Z,55.39
2023-03-26T09:22:05.671Z,56.67
2023-03-26T09:24:32.416Z,55.72
2023-03-26T09:27:11.471Z,54.93
2023-03-26T09:29:56.898Z,54.54
2023-03-26T09:32:47.297Z,54.68
2023-03-26T09:35:19.998Z,56.07
2023-03-26T09:37:57.069Z,55.97
2023-03-26T09:40:38.309Z,55.83
2023-03-26T09:43:28.918Z,56.23
2023-03-26T09:46:14.568Z,56.21
2023-03-26T09:49:02.553Z,55.06
2023-03-26T09:51:56.436Z,56.35
2023-03-26T09:54:44.512Z,55.62
2023-03-26T09:57:26.343Z,56.18
2023-03-26T10:00:09.844Z,54.60
2023-03-26T10:02:46.654Z,55.23
2023-03-26T10:05:17.387Z,55.00
2023-03-26T10:07:47.349Z,56.23
2023-03-26T10:10:18.664Z,55.95
2023-03-26T10:13:14.966Z,55.23
2023-03-26T10:15:41.871Z,51.95
2023-03-26T10:18:30.148Z,52.77
2023-03-26T10:21:19.482Z,49.33
2023-03-26T10:24:01.535Z,48.55
2023-03-26T10:27:09.032Z,46.20
2023-03-26T10:29:55.385Z,44.27
2023-03-26T10:32:44.306Z,47.22
2023-03-26T10:35:11.046Z,49.15
2023-03-26T10:37:56.488Z,48.58
2023-03-26T10:40:43.218Z,48.63
2023-03-26T10:43:28.717Z,47.31
2023-03-26T10:46:02.516Z,47.53
2023-03-26T10:48:42.657Z,48.16
2023-03-26T10:51:21.697Z,47.76
2023-03-26T10:53:48.364Z,44.62
2023-03-26T10:56:30.003Z,44.05
2023-03-26T10:59:03.857Z,46.53
2023-03-26T11:01:51.454Z,46.71
2023-03-26T11:04:38.524Z,47.53
2023-03-26T11:07:16.565Z,48.46
2023-03-26T11:09:46.389Z,46.98
2023-03-26T11:12:26.868Z,47.21
2023-03-26T11:15:07.312Z,47.42
2023-03-26T11:17:45.270Z,46.72
2023-03-26T11:20:22.644Z,46.30
2023-03-26T11:23:11.233Z,48.39
2023-03-26T11:25:43.760Z,45.32
2023-03-26T11:28:17.344Z,42.86
2023-03-26T11:30:55.853Z,42.35
2023-03-26T11:33:25.139Z,43.19
2023-03-26T11:35:54.555Z,45.49
2023-03-26T11:38:53.761Z,46.59
2023-03-26T11:41:28.437Z,45.88
2023-03-26T11:44:14.826Z,44.50
2023-03-26T11:46:43.995Z,47.48
2023-03-26T11:49:13.011Z,47.34
2023-03-26T11:51:41.378Z,46.09
2023-03-26T11:54:11.731Z,45.53
2023-03-26T11:57:05.569Z,47.41
2023-03-26T11:59:45.267Z,46.08
2023-03-26T12:02:24.045Z,49.08
2023-03-26T12:04:55.371Z,47.91
2023-03-26T12:07:34.982Z,48.39
2023-03-26T12:10:17.940Z,48.29
2023-03-26T12:12:54.396Z,47.96
2023-03-26T12:15:21.477Z,48.34
2023-03-26T12:17:50.314Z,51.07
2023-03-26T12:20:26.272Z,50.43
2023-03-26T12:23:04.277Z,49.68
2023-03-26T12:25:34.005Z,50.23
2023-03-26T12:28:07.578Z,50.18
2023-03-26T12:30:35.825Z,48.65
2023-03-26T12:33:16.370Z,47.94
2023-03-26T12:35:43.779Z,48.14
2023-03-26T12:38:22.745Z,47.55
2023-03-26T12:40:49.913Z,46.05
2023-03-26T12:44:46.609Z,45.65
2023-03-26T12:47:56.279Z,45.16
2023-03-26T12:49:15.053Z,44.44
2023-03-26T12:51:48.833Z,44.08
2023-03-26T12:54:16.604Z,44.98
2023-03-26T12:56:50.019Z,44.93
2023-03-26T12:59:55.929Z,46.57
2023-03-26T13:02:34.926Z,46.49
2023-03-26T13:05:24.749Z,48.93
2023-03-26T13:08:03.444Z,49.89
2023-03-26T13:10:53.748Z,47.81
2023-03-26T13:13:40.138Z,49.30
2023-03-26T13:16:07.006Z,49.65
2023-03-26T13:18:33.629Z,49.14
2023-03-26T13:21:00.619Z,50.54
2023-03-26T13:23:44.705Z,49.66
2023-03-26T13:26:12.178Z,51.55
2023-03-26T13:28:48.208Z,51.65
2023-03-26T13:31:33.839Z,52.86
2023-03-26T13:34:08.424Z,51.33
2023-03-26T13:36:41.270Z,51.41
2023-03-26T13:39:14.293Z,50.50
2023-03-26T13:41:50.302Z,50.76
2023-03-26T13:44:35.007Z,49.02
2023-03-26T13:47:07.727Z,51.12
2023-03-26T13:49:39.928Z,52.15
2023-03-26T13:52:10.623Z,49.07
2023-03-26T13:54:41.642Z,50.97
2023-03-26T13:57:25.429Z,50.11
2023-03-26T13:59:55.633Z,49.38
2023-03-26T14:02:22.282Z,49.64
2023-03-26T14:04:51.552Z,49.14
2023-03-26T14:07:23.566Z,48.31
2023-03-26T14:09:53.465Z,49.51
2023-03-26T14:12:23.305Z,48.02
2023-03-26T14:14:53.761Z,48.17
2023-03-26T14:17:23.594Z,46.96
2023-03-26T14:19:56.260Z,47.03
2023-03-26T14:22:38.258Z,46.33
2023-03-26T14:25:05.202Z,47.57
2023-03-26T14:27:52.448Z,47.61
2023-03-26T14:30:37.776Z,47.38
2023-03-26T14:33:34.717Z,49.27
2023-03-26T14:36:04.376Z,49.94
2023-03-26T14:38:44.371Z,51.64
2023-03-26T14:41:24.885Z,53.58
2023-03-26T14:44:10.646Z,53.08
2023-03-26T14:46:56.076Z,53.22
2023-03-26T14:49:25.263Z,53.72
2023-03-26T14:51:57.837Z,54.00
2023-03-26T14:54:27.362Z,54.36
2023-03-26T14:57:12.459Z,55.09
2023-03-26T14:59:39.234Z,55.23
2023-03-26T15:02:27.096Z,54.77
2023-03-26T15:04:53.855Z,55.42
2023-03-26T15:07:37.220Z,54.31
2023-03-26T15:10:16.856Z,54.24
2023-03-26T15:12:48.767Z,55.49
2023-03-26T15:15:35.190Z,53.94
2023-03-26T15:18:21.151Z,55.18
2023-03-26T15:20:57.498Z,53.94
2023-03-26T15:23:27.258Z,53.09
2023-03-26T15:26:15.729Z,53.10
2023-03-26T15:29:01.365Z,53.89
2023-03-26T15:31:31.113Z,55.15
2023-03-26T15:34:21.328Z,54.86
2023-03-26T15:37:13.515Z,55.72
2023-03-26T15:40:00.097Z,56.21
2023-03-26T15:42:41.759Z,56.55
2023-03-26T15:45:11.643Z,56.72
2023-03-26T15:47:43.294Z,57.58
2023-03-26T15:50:11.125Z,57.60
2023-03-26T15:53:07.704Z,58.07
2023-03-26T15:55:52.979Z,56.35
2023-03-26T15:58:28.751Z,55.47
2023-03-26T16:01:20.765Z,57.20
2023-03-26T16:03:53.786Z,56.76
2023-03-26T16:06:41.622Z,56.63
2023-03-26T16:09:11.676Z,56.78
2023-03-26T16:11:57.976Z,57.79
2023-03-26T16:14:42.304Z,57.20
2023-03-26T16:17:13.646Z,57.16
2023-03-26T16:19:49.628Z,57.18
2023-03-26T16:22:42.503Z,58.09
2023-03-26T16:25:27.249Z,59.00
2023-03-26T16:28:10.914Z,57.54
2023-03-26T16:30:38.160Z,58.02
2023-03-26T16:33:15.685Z,58.10
2023-03-26T16:35:42.563Z,57.91
2023-03-26T16:38:14.502Z,57.90
2023-03-26T16:41:03.563Z,59.31
2023-03-26T16:43:33.533Z,57.79
2023-03-26T16:46:03.520Z,57.50
2023-03-26T16:48:39.314Z,57.41
2023-03-26T16:51:17.216Z,59.31
2023-03-26T16:54:01.747Z,57.79
2023-03-26T16:56:53.170Z,58.35
2023-03-26T16:59:38.762Z,58.59
2023-03-26T17:02:13.831Z,58.20
2023-03-26T17:04:43.980Z,58.31
2023-03-26T17:07:16.827Z,57.81
2023-03-26T17:09:54.060Z,57.74
2023-03-26T17:12:20.839Z,58.27
2023-03-26T17:14:49.040Z,59.67
2023-03-26T17:17:31.458Z,58.76
2023-03-26T17:19:58.157Z,60.23
2023-03-26T17:22:35.092Z,59.07
2023-03-26T17:25:22.495Z,58.45
2023-03-26T17:28:15.593Z,58.86
2023-03-26T17:31:03.516Z,57.39
2023-03-26T17:33:38.923Z,59.14
2023-03-26T17:36:11.825Z,56.88
2023-03-26T17:38:45.326Z,58.13
2023-03-26T17:41:13.383Z,57.83
2023-03-26T17:43:48.023Z,58.03
2023-03-26T17:46:17.707Z,57.80
2023-03-26T17:48:47.136Z,56.38
2023-03-26T17:51:22.540Z,56.86
2023-03-26T17:53:49.955Z,56.58
2023-03-26T17:56:19.190Z,56.19
2023-03-26T17:58:49.085Z,57.08
2023-03-26T18:01:37.020Z,56.79
2023-03-26T18:04:07.050Z,57.38
2023-03-26T18:06:39.913Z,58.01
2023-03-26T18:09:24.134Z,58.01
2023-03-26T18:12:01.116Z,56.89
2023-03-26T18:14:46.613Z,57.77
2023-03-26T18:17:13.515Z,57.39
2023-03-26T18:19:48.215Z,57.59
2023-03-26T18:22:23.888Z,57.26
2023-03-26T18:24:54.376Z,58.23
2023-03-26T18:27:22.554Z,57.45
2023-03-26T18:30:01.702Z,57.39
2023-03-26T18:32:31.273Z,57.88
2023-03-26T18:35:24.475Z,58.53
2023-03-26T18:37:53.439Z,58.79
2023-03-26T18:40:23.489Z,58.25
2023-03-26T18:42:52.801Z,58.72
2023-03-26T18:45:27.835Z,58.30
2023-03-26T18:48:13.812Z,59.27
2023-03-26T18:50:42.047Z,58.58
2023-03-26T18:53:14.198Z,57.89
2023-03-26T18:55:43.636Z,57.95
2023-03-26T18:58:21.471Z,57.30
2023-03-26T19:00:49.963Z,58.84
2023-03-26T19:03:19.010Z,59.37
2023-03-26T19:05:45.916Z,58.33
2023-03-26T19:08:12.968Z,57.30
2023-03-26T19:10:39.731Z,57.54
2023-03-26T19:13:12.902Z,56.58
2023-03-26T19:15:39.860Z,56.26
2023-03-26T19:18:09.807Z,55.76
2023-03-26T19:20:39.831Z,56.04
2023-03-26T19:23:08.756Z,54.99
2023-03-26T19:25:39.262Z,56.09
2023-03-26T19:28:09.601Z,56.14
2023-03-26T19:30:43.222Z,56.74
2023-03-26T19:33:20.459Z,55.97
2023-03-26T19:35:54.037Z,57.74
2023-03-26T19:38:27.839Z,56.04
2023-03-26T19:40:56.094Z,55.95
2023-03-26T19:43:23.877Z,56.58
2023-03-26T19:45:59.963Z,56.79
2023-03-26T19:48:46.176Z,56.62
2023-03-26T19:51:21.982Z,56.55
2023-03-26T19:53:53.998Z,57.12
2023-03-26T19:56:22.103Z,56.19
2023-03-26T19:58:50.317Z,56.63
2023-03-26T20:01:21.694Z,57.11
2023-03-26T20:03:51.504Z,57.26
2023-03-26T20:06:22.146Z,56.64
2023-03-26T20:08:52.738Z,56.55
2023-03-26T20:11:33.218Z,56.45
2023-03-26T20:14:07.308Z,56.62
2023-03-26T20:16:35.172Z,56.56
2023-03-26T20:19:04.789Z,56.00
2023-03-26T20:21:34.718Z,56.78
2023-03-26T20:24:01.775Z,57.07
2023-03-26T20:26:28.618Z,57.85
2023-03-26T20:28:55.378Z,59.06
2023-03-26T20:31:23.420Z,58.65
2023-03-26T20:33:53.781Z,56.95
2023-03-26T20:36:33.687Z,56.45
2023-03-26T20:39:02.437Z,58.18
2023-03-26T20:41:29.129Z,58.15
2023-03-26T20:43:55.751Z,57.19
2023-03-26T20:46:23.929Z,56.82
2023-03-26T20:51:38.948Z,57.19
2023-03-26T20:54:06.449Z,57.27
2023-03-26T20:56:35.844Z,57.61
2023-03-26T20:59:11.023Z,58.21
2023-03-26T21:01:38.600Z,58.94
2023-03-26T21:04:05.747Z,59.02
2023-03-26T21:06:32.462Z,59.03
2023-03-26T21:08:59.215Z,58.00
2023-03-26T21:11:26.297Z,59.20
2023-03-26T21:14:02.106Z,59.77
2023-03-26T21:16:28.902Z,58.10
2023-03-26T21:18:58.542Z,59.75
2023-03-26T21:21:25.198Z,58.91
2023-03-26T21:23:59.446Z,60.13
2023-03-26T21:26:43.760Z,59.47
2023-03-26T21:29:11.829Z,58.74
2023-03-26T21:31:38.676Z,59.28
2023-03-26T21:34:09.745Z,59.99
2023-03-26T21:36:36.864Z,58.97
2023-03-26T21:39:05.128Z,58.40
2023-03-26T21:41:36.085Z,60.00
2023-03-26T21:44:03.703Z,59.30
2023-03-26T21:46:31.925Z,59.03
2023-03-26T21:48:58.751Z,58.91
2023-03-26T21:51:25.490Z,59.40
2023-03-26T21:53:52.766Z,59.29
2023-03-26T21:56:38.109Z,60.29
2023-03-26T21:59:07.922Z,59.77
2023-03-26T22:01:43.802Z,59.88
2023-03-26T22:04:25.535Z,59.09
2023-03-26T22:06:57.999Z,60.11
2023-03-26T22:12:02.690Z,59.64
2023-03-26T22:14:29.282Z,59.53
2023-03-26T22:16:55.984Z,58.52
2023-03-26T22:19:25.737Z,58.93
2023-03-26T22:21:52.436Z,60.43
2023-03-26T22:24:19.814Z,60.20
2023-03-26T22:26:47.077Z,59.83
2023-03-26T22:29:24.589Z,59.65
2023-03-26T22:31:51.338Z,60.60
2023-03-26T22:34:18.011Z,59.53
2023-03-26T22:36:44.756Z,60.23
2023-03-26T22:39:12.290Z,60.75
2023-03-26T22:41:39.155Z,60.33
2023-03-26T22:44:19.108Z,60.74
2023-03-26T22:46:49.384Z,60.58
2023-03-26T22:49:16.630Z,60.49
2023-03-26T22:51:43.524Z,61.06
2023-03-26T22:54:12.465Z,61.55
2023-03-26T22:56:39.256Z,60.55
2023-03-26T22:59:06.497Z,61.77
2023-03-26T23:01:33.266Z,60.78
2023-03-26T23:04:02.890Z,61.55
2023-03-26T23:06:29.723Z,60.43
2023-03-26T23:08:57.147Z,60.59
2023-03-26T23:11:24.113Z,60.42
2023-03-26T23:13:51.243Z,60.99
2023-03-26T23:16:19.279Z,61.35
2023-03-26T23:18:46.159Z,61.13
2023-03-26T23:21:20.605Z,60.86
2023-03-26T23:23:48.232Z,62.22
2023-03-26T23:26:15.479Z,61.15
2023-03-26T23:28:43.383Z,62.13
2023-03-26T23:31:14.683Z,61.67
2023-03-26T23:33:47.741Z,60.88
2023-03-26T23:36:20.721Z,62.04
2023-03-26T23:38:48.445Z,63.14
2023-03-26T23:41:16.227Z,62.31
2023-03-26T23:43:53.451Z,62.32
2023-03-26T23:46:23.631Z,61.87
2023-03-26T23:48:54.933Z,60.74
2023-03-26T23:51:22.390Z,61.65
2023-03-26T23:53:49.588Z,61.04
2023-03-26T23:56:16.517Z,63.43
2023-03-26T23:58:43.211Z,61.79
